Time;durP1;ratioP1;P1;durP2;ratioP2;P2;SDS_P1;SDS_P2;PMS_P1;PMS_P2;Temp;Humidity;BMP_temperature;BMP_pressure;BME280_temperature;BME280_humidity;BME280_pressure;Samples;Min_cycle;Max_cycle;Signal;HPM_P1;HPM_P2
2022/06/04 00:01:56;;;;;;;1.00;1.00;;;;;;;;;;1796859;78;26307;-48
2022/06/04 00:04:24;;;;;;;0.80;0.80;;;;;;;;;;1798763;78;26805;-47
2022/06/04 00:06:51;;;;;;;0.85;0.85;;;;;;;;;;1800554;78;26764;-47
2022/06/04 00:09:28;;;;;;;0.90;0.90;;;;;;;;;;1800403;78;26941;-49
2022/06/04 00:17:27;;;;;;;0.85;0.85;;;;;;;;;;1786128;78;26343;-49
2022/06/04 00:19:54;;;;;;;0.78;0.78;;;;;;;;;;1793886;78;26330;-51
2022/06/04 00:22:21;;;;;;;0.80;0.80;;;;;;;;;;1796196;78;26287;-53
2022/06/04 00:24:49;;;;;;;1.37;1.27;;;;;;;;;;1798055;78;26353;-49
2022/06/04 00:27:17;;;;;;;0.70;0.70;;;;;;;;;;1803564;78;26872;-47
2022/06/04 00:29:45;;;;;;;0.80;0.80;;;;;;;;;;1797803;78;26761;-50
2022/06/04 00:32:12;;;;;;;0.80;0.80;;;;;;;;;;1797738;78;26291;-47
2022/06/04 00:34:40;;;;;;;0.60;0.60;;;;;;;;;;1799731;78;26302;-47
2022/06/04 00:37:07;;;;;;;0.80;0.80;;;;;;;;;;1800211;78;26346;-51
2022/06/04 00:39:35;;;;;;;0.85;0.85;;;;;;;;;;1799208;78;26354;-51
2022/06/04 00:42:04;;;;;;;0.80;0.80;;;;;;;;;;1799875;78;26356;-53
2022/06/04 00:44:32;;;;;;;0.98;0.80;;;;;;;;;;1799215;78;26227;-47
2022/06/04 00:47:07;;;;;;;0.80;0.80;;;;;;;;;;1781396;78;26308;-50
2022/06/04 00:49:35;;;;;;;0.90;0.90;;;;;;;;;;1799406;78;26318;-52
2022/06/04 00:52:02;;;;;;;0.70;0.70;;;;;;;;;;1788047;78;26386;-50
2022/06/04 00:54:30;;;;;;;0.80;0.80;;;;;;;;;;1799326;78;26598;-51
2022/06/04 00:57:16;;;;;;;0.70;0.70;;;;;;;;;;1799840;78;26676;-49
2022/06/04 00:59:57;;;;;;;0.80;0.80;;;;;;;;;;1796197;78;26291;-51
2022/06/04 01:02:44;;;;;;;0.70;0.70;;;;;;;;;;1798736;78;27491;-48
2022/06/04 01:05:18;;;;;;;0.70;0.70;;;;;;;;;;1799827;78;26279;-50
2022/06/04 01:07:52;;;;;;;0.80;0.80;;;;;;;;;;1801920;78;26256;-48
2022/06/04 01:10:27;;;;;;;0.95;0.70;;;;;;;;;;1785813;78;26346;-47
2022/06/04 01:13:11;;;;;;;0.70;0.70;;;;;;;;;;1773521;78;26376;-49
2022/06/04 01:15:39;;;;;;;0.72;0.72;;;;;;;;;;1799543;78;26350;-47
2022/06/04 01:18:08;;;;;;;0.85;0.85;;;;;;;;;;1797781;78;26274;-47
2022/06/04 01:20:37;;;;;;;0.72;0.72;;;;;;;;;;1797765;78;26697;-50
2022/06/04 01:23:24;;;;;;;0.80;0.80;;;;;;;;;;1800318;78;26786;-50
2022/06/04 01:26:09;;;;;;;0.75;0.75;;;;;;;;;;1778272;78;26649;-49
2022/06/04 01:28:38;;;;;;;0.80;0.80;;;;;;;;;;1792781;78;26299;-51
2022/06/04 01:31:06;;;;;;;0.70;0.70;;;;;;;;;;1800141;78;26334;-47
2022/06/04 01:33:38;;;;;;;0.70;0.70;;;;;;;;;;1795939;78;26258;-50
2022/06/04 01:36:07;;;;;;;0.80;0.80;;;;;;;;;;1792703;78;26625;-50
2022/06/04 01:38:36;;;;;;;0.75;0.75;;;;;;;;;;1796840;78;26822;-49
2022/06/04 01:41:05;;;;;;;0.68;0.68;;;;;;;;;;1797723;78;26303;-49
2022/06/04 01:43:34;;;;;;;0.75;0.75;;;;;;;;;;1790480;78;26649;-47
2022/06/04 01:46:03;;;;;;;0.70;0.70;;;;;;;;;;1801090;78;26274;-48
2022/06/04 01:48:32;;;;;;;0.70;0.70;;;;;;;;;;1798827;78;26279;-49
2022/06/04 01:51:03;;;;;;;0.85;0.85;;;;;;;;;;1810893;78;26276;-52
2022/06/04 01:53:31;;;;;;;0.70;0.70;;;;;;;;;;1804342;78;26345;-48
2022/06/04 01:56:00;;;;;;;0.70;0.70;;;;;;;;;;1811132;78;26224;-48
2022/06/04 01:58:43;;;;;;;0.47;0.47;;;;;;;;;;1800663;78;26310;-49
2022/06/04 02:01:12;;;;;;;0.70;0.70;;;;;;;;;;1796332;78;26351;-52
2022/06/04 02:03:42;;;;;;;0.70;0.70;;;;;;;;;;1800747;78;26279;-48
2022/06/04 02:06:13;;;;;;;0.72;0.72;;;;;;;;;;1799299;78;26368;-49
2022/06/04 02:08:43;;;;;;;0.60;0.60;;;;;;;;;;1799715;78;26793;-48
2022/06/04 02:11:11;;;;;;;0.70;0.70;;;;;;;;;;1798056;78;26335;-47
2022/06/04 02:13:39;;;;;;;0.80;0.80;;;;;;;;;;1801636;78;26837;-47
2022/06/04 02:16:08;;;;;;;0.80;0.80;;;;;;;;;;1800440;78;26884;-50
2022/06/04 02:18:36;;;;;;;0.80;0.80;;;;;;;;;;1796775;78;26331;-47
2022/06/04 02:21:04;;;;;;;0.60;0.60;;;;;;;;;;1798597;78;26282;-47
2022/06/04 02:23:33;;;;;;;0.70;0.70;;;;;;;;;;1796672;78;26299;-49
2022/06/04 02:26:00;;;;;;;0.70;0.70;;;;;;;;;;1801842;78;26315;-50
2022/06/04 02:28:29;;;;;;;0.80;0.80;;;;;;;;;;1796524;78;26271;-49
2022/06/04 02:31:07;;;;;;;0.70;0.70;;;;;;;;;;1799107;78;26301;-51
2022/06/04 02:33:39;;;;;;;0.60;0.60;;;;;;;;;;1811204;78;26385;-48
2022/06/04 02:36:13;;;;;;;0.80;0.80;;;;;;;;;;1814396;78;26800;-48
2022/06/04 02:38:51;;;;;;;0.72;0.72;;;;;;;;;;1801633;78;26384;-51
2022/06/04 02:41:28;;;;;;;0.70;0.70;;;;;;;;;;1798587;78;26275;-52
2022/06/04 02:44:03;;;;;;;0.68;0.68;;;;;;;;;;1799624;78;26719;-49
2022/06/04 02:46:32;;;;;;;0.70;0.70;;;;;;;;;;1800044;78;26222;-49
2022/06/04 02:49:08;;;;;;;0.70;0.70;;;;;;;;;;1799510;78;26315;-47
2022/06/04 02:51:40;;;;;;;0.65;0.65;;;;;;;;;;1799165;78;26751;-48
2022/06/04 02:54:09;;;;;;;0.68;0.68;;;;;;;;;;1799711;77;27309;-47
2022/06/04 02:56:38;;;;;;;0.70;0.70;;;;;;;;;;1812680;78;26226;-47
2022/06/04 02:59:08;;;;;;;0.70;0.70;;;;;;;;;;1813361;78;26319;-49
2022/06/04 03:01:37;;;;;;;0.60;0.60;;;;;;;;;;1811922;78;26278;-48
2022/06/04 03:04:05;;;;;;;0.72;0.72;;;;;;;;;;1810822;78;26279;-52
2022/06/04 03:06:32;;;;;;;0.62;0.62;;;;;;;;;;1810555;78;26613;-53
2022/06/04 03:09:01;;;;;;;0.60;0.60;;;;;;;;;;1814956;77;26389;-53
2022/06/04 03:11:29;;;;;;;0.70;0.70;;;;;;;;;;1834864;77;26288;-50
2022/06/04 03:13:56;;;;;;;0.60;0.60;;;;;;;;;;1811134;78;26384;-50
2022/06/04 03:16:23;;;;;;;1.30;0.60;;;;;;;;;;1785636;78;26317;-49
2022/06/04 03:18:50;;;;;;;1.00;0.62;;;;;;;;;;1811527;78;26364;-48
2022/06/04 03:21:18;;;;;;;0.70;0.70;;;;;;;;;;1813788;78;26369;-48
2022/06/04 03:23:46;;;;;;;0.70;0.70;;;;;;;;;;1810994;78;26248;-51
2022/06/04 03:26:13;;;;;;;0.82;0.82;;;;;;;;;;1798640;78;26340;-50
2022/06/04 03:28:40;;;;;;;0.90;0.90;;;;;;;;;;1821099;77;26285;-46
2022/06/04 03:31:07;;;;;;;0.70;0.70;;;;;;;;;;1813575;78;26340;-47
2022/06/04 03:33:35;;;;;;;0.60;0.60;;;;;;;;;;1810081;77;26383;-48
2022/06/04 03:36:02;;;;;;;0.70;0.70;;;;;;;;;;1811958;78;26353;-51
2022/06/04 03:38:29;;;;;;;0.62;0.62;;;;;;;;;;1814187;78;26325;-47
2022/06/04 03:40:57;;;;;;;0.60;0.60;;;;;;;;;;1812373;77;26381;-48
2022/06/04 03:43:24;;;;;;;0.70;0.70;;;;;;;;;;1812241;77;26361;-50
2022/06/04 03:45:52;;;;;;;0.70;0.70;;;;;;;;;;1813143;78;26308;-48
2022/06/04 03:48:19;;;;;;;0.72;0.72;;;;;;;;;;1815779;78;26792;-50
2022/06/04 03:50:47;;;;;;;0.60;0.60;;;;;;;;;;1813066;78;26291;-49
2022/06/04 03:53:14;;;;;;;0.70;0.70;;;;;;;;;;1804349;77;26294;-50
2022/06/04 03:55:41;;;;;;;0.70;0.70;;;;;;;;;;1798494;78;26825;-49
2022/06/04 03:58:09;;;;;;;0.65;0.65;;;;;;;;;;1795987;78;26279;-48
2022/06/04 04:00:38;;;;;;;0.70;0.70;;;;;;;;;;1796506;78;26388;-49
2022/06/04 04:03:07;;;;;;;0.68;0.68;;;;;;;;;;1795982;78;26468;-50
2022/06/04 04:05:39;;;;;;;0.68;0.68;;;;;;;;;;1794938;78;26404;-47
2022/06/04 04:08:08;;;;;;;0.53;0.53;;;;;;;;;;1799962;78;26309;-47
2022/06/04 04:10:35;;;;;;;0.70;0.70;;;;;;;;;;1791196;78;26326;-48
2022/06/04 04:13:02;;;;;;;2.83;0.70;;;;;;;;;;1797382;78;26318;-47
2022/06/04 04:15:29;;;;;;;0.70;0.70;;;;;;;;;;1796750;78;26396;-48
2022/06/04 04:17:57;;;;;;;0.70;0.70;;;;;;;;;;1801060;78;26306;-48
2022/06/04 04:20:25;;;;;;;0.70;0.70;;;;;;;;;;1800065;78;26286;-49
2022/06/04 04:22:53;;;;;;;0.70;0.70;;;;;;;;;;1804705;78;26322;-48
2022/06/04 04:25:21;;;;;;;0.50;0.50;;;;;;;;;;1796170;78;26333;-48
2022/06/04 04:27:49;;;;;;;0.70;0.70;;;;;;;;;;1798057;78;26305;-46
2022/06/04 04:30:18;;;;;;;2.37;0.70;;;;;;;;;;1796849;78;26748;-51
2022/06/04 04:32:46;;;;;;;0.62;0.62;;;;;;;;;;1795641;78;26698;-48
2022/06/04 04:35:15;;;;;;;0.60;0.60;;;;;;;;;;1777645;78;26398;-47
2022/06/04 04:37:42;;;;;;;0.60;0.60;;;;;;;;;;1787261;78;26801;-50
2022/06/04 04:40:11;;;;;;;0.70;0.70;;;;;;;;;;1788107;78;26350;-47
2022/06/04 04:42:39;;;;;;;0.60;0.60;;;;;;;;;;1798208;78;26366;-51
2022/06/04 04:45:11;;;;;;;0.80;0.80;;;;;;;;;;1800216;78;26377;-48
2022/06/04 04:47:36;;;;;;;0.70;0.70;;;;;;;;;;1798060;78;26306;-49
2022/06/04 04:50:05;;;;;;;0.70;0.70;;;;;;;;;;1799294;78;26369;-51
2022/06/04 04:52:32;;;;;;;0.70;0.70;;;;;;;;;;1798673;78;26299;-48
2022/06/04 04:54:59;;;;;;;0.60;0.60;;;;;;;;;;1795004;78;26322;-49
2022/06/04 04:57:27;;;;;;;0.70;0.70;;;;;;;;;;1798455;78;26348;-47
2022/06/04 04:59:54;;;;;;;0.70;0.70;;;;;;;;;;1813158;78;26279;-49
2022/06/04 05:02:21;;;;;;;0.70;0.70;;;;;;;;;;1810751;77;26333;-48
2022/06/04 05:04:48;;;;;;;0.60;0.60;;;;;;;;;;1815606;77;26278;-54
2022/06/04 05:07:16;;;;;;;0.60;0.60;;;;;;;;;;1810336;77;26307;-50
2022/06/04 05:09:43;;;;;;;0.80;0.80;;;;;;;;;;1814444;77;26734;-47
2022/06/04 05:12:11;;;;;;;0.70;0.70;;;;;;;;;;1813769;78;26249;-47
2022/06/04 05:14:38;;;;;;;0.68;0.68;;;;;;;;;;1811640;77;26687;-49
2022/06/04 05:17:06;;;;;;;0.80;0.80;;;;;;;;;;1812693;78;26352;-49
2022/06/04 05:19:34;;;;;;;0.70;0.70;;;;;;;;;;1811838;77;26307;-51
2022/06/04 05:22:01;;;;;;;0.68;0.68;;;;;;;;;;1811688;78;26704;-48
2022/06/04 05:24:31;;;;;;;0.70;0.62;;;;;;;;;;1808669;77;26322;-50
2022/06/04 05:27:00;;;;;;;0.82;0.80;;;;;;;;;;1809000;78;26814;-50
2022/06/04 05:29:29;;;;;;;0.80;0.80;;;;;;;;;;1812666;78;26891;-47
2022/06/04 05:31:57;;;;;;;0.60;0.60;;;;;;;;;;1830720;78;26845;-51
2022/06/04 05:34:25;;;;;;;0.70;0.70;;;;;;;;;;1811072;77;26789;-48
2022/06/04 05:36:53;;;;;;;0.78;0.78;;;;;;;;;;1811509;78;26307;-51
2022/06/04 05:39:21;;;;;;;1.17;0.62;;;;;;;;;;1813034;77;26672;-46
2022/06/04 05:41:48;;;;;;;0.60;0.60;;;;;;;;;;1813448;78;26364;-49
2022/06/04 05:44:16;;;;;;;1.37;0.70;;;;;;;;;;1812477;77;26413;-47
2022/06/04 05:46:44;;;;;;;0.60;0.60;;;;;;;;;;1803614;78;26293;-50
2022/06/04 05:49:12;;;;;;;0.70;0.70;;;;;;;;;;1816652;77;26279;-51
2022/06/04 05:51:41;;;;;;;1.12;0.70;;;;;;;;;;1816695;77;27701;-49
2022/06/04 05:54:08;;;;;;;0.70;0.70;;;;;;;;;;1810674;77;26909;-49
2022/06/04 05:56:37;;;;;;;0.78;0.78;;;;;;;;;;1806730;78;26362;-49
2022/06/04 05:59:06;;;;;;;0.70;0.70;;;;;;;;;;1799065;78;26297;-48
2022/06/04 06:01:34;;;;;;;0.80;0.80;;;;;;;;;;1800961;78;26356;-49
2022/06/04 06:04:02;;;;;;;0.72;0.72;;;;;;;;;;1793742;78;26773;-49
2022/06/04 06:06:31;;;;;;;3.60;1.02;;;;;;;;;;1799676;78;26350;-51
2022/06/04 06:08:59;;;;;;;1.70;0.70;;;;;;;;;;1798838;78;26305;-49
2022/06/04 06:11:26;;;;;;;0.70;0.70;;;;;;;;;;1782015;78;26328;-51
2022/06/04 06:13:54;;;;;;;1.07;0.90;;;;;;;;;;1775527;78;26384;-52
2022/06/04 06:16:22;;;;;;;0.70;0.70;;;;;;;;;;1777123;78;26289;-49
2022/06/04 06:18:50;;;;;;;0.78;0.78;;;;;;;;;;1783485;78;26376;-49
2022/06/04 06:21:19;;;;;;;0.70;0.70;;;;;;;;;;1793329;78;26302;-50
2022/06/04 06:23:46;;;;;;;0.80;0.80;;;;;;;;;;1792948;78;26299;-51
2022/06/04 06:26:15;;;;;;;1.60;0.90;;;;;;;;;;1779196;78;27503;-52
2022/06/04 06:28:44;;;;;;;0.70;0.70;;;;;;;;;;1778262;78;26301;-50
2022/06/04 06:31:12;;;;;;;1.52;0.95;;;;;;;;;;1778569;78;26783;-48
2022/06/04 06:33:40;;;;;;;1.45;0.80;;;;;;;;;;1774432;78;26816;-52
2022/06/04 06:36:08;;;;;;;0.70;0.70;;;;;;;;;;1788650;78;26294;-47
2022/06/04 06:38:36;;;;;;;0.80;0.80;;;;;;;;;;1786445;78;26321;-47
2022/06/04 06:41:04;;;;;;;0.80;0.80;;;;;;;;;;1782036;78;26307;-49
2022/06/04 06:43:42;;;;;;;0.80;0.80;;;;;;;;;;1783046;78;26407;-49
2022/06/04 06:46:06;;;;;;;0.88;0.82;;;;;;;;;;1781188;78;26730;-49
2022/06/04 06:48:35;;;;;;;0.90;0.90;;;;;;;;;;1779680;78;26846;-50
2022/06/04 06:51:06;;;;;;;0.80;0.80;;;;;;;;;;1781745;78;26300;-51
2022/06/04 06:53:34;;;;;;;0.90;0.90;;;;;;;;;;1777289;78;26378;-50
2022/06/04 06:56:11;;;;;;;0.68;0.68;;;;;;;;;;1784023;78;26784;-51
2022/06/04 06:58:38;;;;;;;0.80;0.80;;;;;;;;;;1808037;78;26349;-51
2022/06/04 07:01:06;;;;;;;0.90;0.90;;;;;;;;;;1799499;78;26736;-49
2022/06/04 07:03:37;;;;;;;0.88;0.88;;;;;;;;;;1814432;78;26347;-51
2022/06/04 07:06:05;;;;;;;0.80;0.80;;;;;;;;;;1798250;78;26309;-51
2022/06/04 07:08:32;;;;;;;1.47;0.80;;;;;;;;;;1794067;78;26319;-51
2022/06/04 07:11:00;;;;;;;0.85;0.85;;;;;;;;;;1805126;78;26326;-54
2022/06/04 07:13:27;;;;;;;0.80;0.80;;;;;;;;;;1811052;78;26302;-53
2022/06/04 07:15:54;;;;;;;1.22;0.90;;;;;;;;;;1810999;78;26396;-52
2022/06/04 07:18:23;;;;;;;0.90;0.90;;;;;;;;;;1798162;78;26966;-48
2022/06/04 07:20:50;;;;;;;0.90;0.90;;;;;;;;;;1806788;78;26877;-49
2022/06/04 07:23:18;;;;;;;1.60;1.00;;;;;;;;;;1806836;78;26288;-50
2022/06/04 07:25:46;;;;;;;0.90;0.90;;;;;;;;;;1800052;78;26385;-51
2022/06/04 07:28:15;;;;;;;0.85;0.85;;;;;;;;;;1798492;78;26734;-52
2022/06/04 07:30:43;;;;;;;1.00;1.00;;;;;;;;;;1790825;78;26736;-50
2022/06/04 07:33:10;;;;;;;1.22;0.80;;;;;;;;;;1801190;78;26309;-51
2022/06/04 07:35:37;;;;;;;1.65;0.80;;;;;;;;;;1790720;78;26305;-50
2022/06/04 07:38:05;;;;;;;0.98;0.90;;;;;;;;;;1799811;78;26600;-52
2022/06/04 07:40:32;;;;;;;1.72;0.90;;;;;;;;;;1797958;78;26314;-50
2022/06/04 07:42:59;;;;;;;1.22;0.90;;;;;;;;;;1797492;78;26325;-49
2022/06/04 07:45:26;;;;;;;5.62;1.17;;;;;;;;;;1793919;78;26284;-50
2022/06/04 07:47:54;;;;;;;1.25;0.90;;;;;;;;;;1799261;78;26292;-50
2022/06/04 07:50:21;;;;;;;1.47;0.90;;;;;;;;;;1800843;78;26326;-51
2022/06/04 07:52:49;;;;;;;1.05;0.90;;;;;;;;;;1794841;78;26602;-50
2022/06/04 07:55:16;;;;;;;0.90;0.90;;;;;;;;;;1800689;78;26313;-50
2022/06/04 07:57:45;;;;;;;0.90;0.90;;;;;;;;;;1792869;78;26305;-52
2022/06/04 08:00:12;;;;;;;1.87;0.93;;;;;;;;;;1797727;78;26298;-51
2022/06/04 08:02:42;;;;;;;0.80;0.80;;;;;;;;;;1797447;78;26390;-50
2022/06/04 08:05:09;;;;;;;1.42;1.00;;;;;;;;;;1797722;78;26288;-50
2022/06/04 08:07:37;;;;;;;0.93;0.90;;;;;;;;;;1801069;78;26360;-50
2022/06/04 08:10:06;;;;;;;1.75;1.00;;;;;;;;;;1798573;78;26639;-50
2022/06/04 08:12:33;;;;;;;1.27;1.17;;;;;;;;;;1801020;78;25909;-50
2022/06/04 08:15:02;;;;;;;1.00;1.00;;;;;;;;;;1800523;78;26314;-48
2022/06/04 08:17:31;;;;;;;1.90;1.00;;;;;;;;;;1798185;78;26290;-50
2022/06/04 08:19:59;;;;;;;0.98;0.98;;;;;;;;;;1795663;78;26833;-54
2022/06/04 08:22:26;;;;;;;1.17;1.10;;;;;;;;;;1801039;78;26864;-52
2022/06/04 08:24:53;;;;;;;0.90;0.90;;;;;;;;;;1796203;78;26790;-52
2022/06/04 08:27:20;;;;;;;2.65;1.30;;;;;;;;;;1794402;78;27469;-50
2022/06/04 08:29:48;;;;;;;0.95;0.95;;;;;;;;;;1796786;78;26569;-44
2022/06/04 08:32:15;;;;;;;2.50;1.00;;;;;;;;;;1801246;78;26286;-45
2022/06/04 08:34:42;;;;;;;0.98;0.98;;;;;;;;;;1801134;78;26388;-44
2022/06/04 08:37:10;;;;;;;1.00;1.00;;;;;;;;;;1800875;78;26766;-43
2022/06/04 08:39:37;;;;;;;0.90;0.90;;;;;;;;;;1796624;78;26314;-44
2022/06/04 08:42:13;;;;;;;1.37;0.93;;;;;;;;;;1801375;78;26429;-43
2022/06/04 08:44:45;;;;;;;1.00;1.00;;;;;;;;;;1796072;78;26790;-43
2022/06/04 08:47:19;;;;;;;1.30;0.93;;;;;;;;;;1799690;78;26276;-43
2022/06/04 08:49:57;;;;;;;1.00;1.00;;;;;;;;;;1794844;78;26320;-45
2022/06/04 08:52:26;;;;;;;1.10;1.10;;;;;;;;;;1790499;78;26936;-43
2022/06/04 08:57:58;;;;;;;1.00;1.00;;;;;;;;;;1793753;78;26319;-45
2022/06/04 09:00:26;;;;;;;1.75;1.10;;;;;;;;;;1799088;78;26832;-42
2022/06/04 09:03:01;;;;;;;1.17;1.17;;;;;;;;;;1793284;78;26673;-42
2022/06/04 09:05:46;;;;;;;1.00;1.00;;;;;;;;;;1794059;78;26386;-45
2022/06/04 09:08:15;;;;;;;1.10;1.10;;;;;;;;;;1791131;78;26871;-44
2022/06/04 09:10:44;;;;;;;1.02;1.02;;;;;;;;;;1796324;78;26790;-43
2022/06/04 09:13:16;;;;;;;1.30;1.20;;;;;;;;;;1797586;78;26739;-47
2022/06/04 09:15:45;;;;;;;1.20;1.20;;;;;;;;;;1797457;78;26341;-43
2022/06/04 09:18:14;;;;;;;1.20;1.20;;;;;;;;;;1802097;78;26325;-45
2022/06/04 09:20:42;;;;;;;1.30;1.20;;;;;;;;;;1794624;78;26293;-42
2022/06/04 09:23:26;;;;;;;1.10;1.10;;;;;;;;;;1795034;78;26727;-45
2022/06/04 09:25:55;;;;;;;1.52;1.30;;;;;;;;;;1790586;78;26287;-42
2022/06/04 09:28:27;;;;;;;1.10;1.10;;;;;;;;;;1796458;78;26840;-43
2022/06/04 09:31:02;;;;;;;1.40;1.30;;;;;;;;;;1793654;78;26389;-43
2022/06/04 09:33:33;;;;;;;1.30;1.30;;;;;;;;;;1796266;78;26777;-43
2022/06/04 09:36:01;;;;;;;1.10;1.10;;;;;;;;;;1792227;78;26228;-46
2022/06/04 09:38:31;;;;;;;1.15;1.15;;;;;;;;;;1800274;77;26289;-42
2022/06/04 09:41:03;;;;;;;1.10;1.10;;;;;;;;;;1796459;78;27226;-43
2022/06/04 09:43:31;;;;;;;1.20;1.20;;;;;;;;;;1802289;78;26330;-44
2022/06/04 09:46:00;;;;;;;1.20;1.20;;;;;;;;;;1796054;77;26216;-43
2022/06/04 09:48:29;;;;;;;1.30;1.20;;;;;;;;;;1798084;78;26305;-43
2022/06/04 09:50:58;;;;;;;1.45;1.10;;;;;;;;;;1796088;78;26310;-45
2022/06/04 09:53:27;;;;;;;1.10;1.10;;;;;;;;;;1801314;78;26293;-44
2022/06/04 09:56:07;;;;;;;1.40;1.30;;;;;;;;;;1801223;78;26755;-43
2022/06/04 09:58:36;;;;;;;1.57;1.47;;;;;;;;;;1794554;78;26286;-43
2022/06/04 10:01:08;;;;;;;1.20;1.20;;;;;;;;;;1792233;78;26409;-43
2022/06/04 10:03:37;;;;;;;2.02;1.22;;;;;;;;;;1786005;79;26377;-43
2022/06/04 10:06:06;;;;;;;1.30;1.30;;;;;;;;;;1796160;78;26356;-43
2022/06/04 10:09:55;;;;;;;1.35;1.25;;;;;;;;;;1777877;78;27329;-44
2022/06/04 10:11:07;;;;;;;1.30;1.30;;;;;;;;;;1785506;79;26388;-43
2022/06/04 10:13:45;;;;;;;1.10;1.10;;;;;;;;;;1791845;78;26908;-45
2022/06/04 10:16:23;;;;;;;1.20;1.20;;;;;;;;;;1798842;78;26278;-45
2022/06/04 10:18:58;;;;;;;1.00;1.00;;;;;;;;;;1790206;79;26763;-43
2022/06/04 10:21:28;;;;;;;9.63;1.85;;;;;;;;;;1790595;78;26284;-42
2022/06/04 10:23:57;;;;;;;1.27;1.17;;;;;;;;;;1788821;78;26376;-44
2022/06/04 10:26:42;;;;;;;1.10;1.10;;;;;;;;;;1797748;79;26794;-44
2022/06/04 10:29:11;;;;;;;1.20;1.20;;;;;;;;;;1802374;78;26346;-43
2022/06/04 10:31:49;;;;;;;1.50;1.40;;;;;;;;;;1793234;78;26325;-44
2022/06/04 10:34:34;;;;;;;1.10;1.10;;;;;;;;;;1790844;78;26327;-45
2022/06/04 10:37:09;;;;;;;1.37;1.10;;;;;;;;;;1798305;78;26345;-43
2022/06/04 10:39:47;;;;;;;1.35;1.20;;;;;;;;;;1802094;78;26314;-45
2022/06/04 10:42:19;;;;;;;1.95;1.30;;;;;;;;;;1799236;78;26294;-43
2022/06/04 10:44:54;;;;;;;1.20;1.20;;;;;;;;;;1784829;78;26353;-44
2022/06/04 10:47:23;;;;;;;1.40;1.20;;;;;;;;;;1795971;78;27391;-43
2022/06/04 10:49:51;;;;;;;2.15;1.30;;;;;;;;;;1795822;78;26280;-43
2022/06/04 10:52:29;;;;;;;1.30;1.30;;;;;;;;;;1794985;78;26443;-43
2022/06/04 10:54:58;;;;;;;1.30;1.30;;;;;;;;;;1788088;78;26284;-43
2022/06/04 10:57:30;;;;;;;1.20;1.20;;;;;;;;;;1807833;78;26323;-43
2022/06/04 10:59:59;;;;;;;1.10;1.10;;;;;;;;;;1807228;78;26295;-42
2022/06/04 11:02:28;;;;;;;1.40;1.30;;;;;;;;;;1791758;78;26705;-43
2022/06/04 11:05:00;;;;;;;1.20;1.20;;;;;;;;;;1802570;78;26384;-45
2022/06/04 11:07:38;;;;;;;1.20;1.20;;;;;;;;;;1799768;78;26762;-42
2022/06/04 11:10:06;;;;;;;1.95;1.17;;;;;;;;;;1798905;78;26291;-43
2022/06/04 11:12:41;;;;;;;1.10;1.10;;;;;;;;;;1806221;78;26352;-43
2022/06/04 11:15:10;;;;;;;1.30;1.20;;;;;;;;;;1798332;78;26399;-45
2022/06/04 11:17:44;;;;;;;1.20;1.20;;;;;;;;;;1799126;78;26348;-47
2022/06/04 11:20:13;;;;;;;1.10;1.10;;;;;;;;;;1800487;78;26881;-45
2022/06/04 11:22:42;;;;;;;1.20;1.20;;;;;;;;;;1799982;78;26990;-43
2022/06/04 11:25:18;;;;;;;1.20;1.20;;;;;;;;;;1801687;79;26824;-45
2022/06/04 11:27:47;;;;;;;1.20;1.20;;;;;;;;;;1796363;78;26762;-42
2022/06/04 11:30:16;;;;;;;1.10;1.10;;;;;;;;;;1798804;78;26791;-44
2022/06/04 11:32:47;;;;;;;0.98;0.98;;;;;;;;;;1796631;78;26290;-45
2022/06/04 11:35:16;;;;;;;1.15;1.10;;;;;;;;;;1796987;78;26853;-44
2022/06/04 11:38:02;;;;;;;1.00;1.00;;;;;;;;;;1799310;78;27347;-45
2022/06/04 11:40:30;;;;;;;1.07;1.07;;;;;;;;;;1804030;78;26280;-44
2022/06/04 11:42:59;;;;;;;1.10;1.10;;;;;;;;;;1795634;79;26359;-44
2022/06/04 11:45:44;;;;;;;1.12;1.12;;;;;;;;;;1799406;78;26227;-43
2022/06/04 11:48:16;;;;;;;1.40;1.30;;;;;;;;;;1800102;78;26864;-45
2022/06/04 11:51:01;;;;;;;1.20;1.20;;;;;;;;;;1795655;78;26280;-45
2022/06/04 11:53:33;;;;;;;1.05;1.05;;;;;;;;;;1800820;78;26788;-43
2022/06/04 11:56:02;;;;;;;1.10;1.10;;;;;;;;;;1798837;78;26278;-44
2022/06/04 11:58:31;;;;;;;1.35;1.10;;;;;;;;;;1789245;78;26341;-43
2022/06/04 12:01:00;;;;;;;1.12;1.10;;;;;;;;;;1795999;78;26232;-43
2022/06/04 12:03:31;;;;;;;1.10;1.10;;;;;;;;;;1792806;78;26370;-43
2022/06/04 12:06:19;;;;;;;5.85;1.27;;;;;;;;;;1800905;78;26311;-46
2022/06/04 12:08:47;;;;;;;1.50;1.40;;;;;;;;;;1802569;78;26232;-44
2022/06/04 12:11:19;;;;;;;1.45;1.10;;;;;;;;;;1802247;78;26916;-43
2022/06/04 12:13:57;;;;;;;1.57;1.15;;;;;;;;;;1797732;78;26325;-44
2022/06/04 12:16:42;;;;;;;1.22;1.10;;;;;;;;;;1803230;78;26278;-43
2022/06/04 12:25:08;;;;;;;1.15;1.15;;;;;;;;;;1810917;78;26701;-45
2022/06/04 12:27:38;;;;;;;1.50;1.22;;;;;;;;;;1798230;78;26372;-43
2022/06/04 12:30:16;;;;;;;3.17;1.10;;;;;;;;;;1801641;78;26321;-45
2022/06/04 12:32:44;;;;;;;3.17;1.32;;;;;;;;;;1803247;78;26302;-44
2022/06/04 12:35:13;;;;;;;2.27;1.10;;;;;;;;;;1808560;78;26304;-45
2022/06/04 12:37:41;;;;;;;4.17;1.40;;;;;;;;;;1805496;78;26299;-43
2022/06/04 12:40:16;;;;;;;1.00;1.00;;;;;;;;;;1809597;77;26390;-44
2022/06/04 12:42:45;;;;;;;1.57;1.00;;;;;;;;;;1813133;78;26771;-43
2022/06/04 12:45:29;;;;;;;1.00;1.00;;;;;;;;;;1809392;77;26391;-44
2022/06/04 12:47:58;;;;;;;1.52;1.02;;;;;;;;;;1810446;78;26419;-44
2022/06/04 12:50:29;;;;;;;1.70;1.10;;;;;;;;;;1813451;78;26301;-45
2022/06/04 12:53:07;;;;;;;3.83;1.10;;;;;;;;;;1812475;78;26232;-46
2022/06/04 12:55:41;;;;;;;1.10;1.10;;;;;;;;;;1799487;78;26194;-45
2022/06/04 12:58:25;;;;;;;0.93;0.93;;;;;;;;;;1809694;78;26348;-44
2022/06/04 13:00:56;;;;;;;2.00;1.00;;;;;;;;;;1803400;78;26279;-47
2022/06/04 13:03:25;;;;;;;1.10;1.10;;;;;;;;;;1809621;78;26768;-46
2022/06/04 13:06:00;;;;;;;4.03;1.20;;;;;;;;;;1785696;78;26759;-45
2022/06/04 13:08:45;;;;;;;0.93;0.90;;;;;;;;;;1800547;78;26343;-45
2022/06/04 13:11:17;;;;;;;1.00;1.00;;;;;;;;;;1803156;78;26346;-47
2022/06/04 13:14:03;;;;;;;1.20;1.00;;;;;;;;;;1811405;78;26791;-44
2022/06/04 13:16:32;;;;;;;1.37;0.95;;;;;;;;;;1809563;78;26272;-43
2022/06/04 13:19:03;;;;;;;1.00;1.00;;;;;;;;;;1810412;78;26287;-44
2022/06/04 13:21:32;;;;;;;0.95;0.95;;;;;;;;;;1806434;78;26310;-43
2022/06/04 13:24:03;;;;;;;2.35;1.00;;;;;;;;;;1817018;77;26325;-43
2022/06/04 13:26:32;;;;;;;1.20;1.10;;;;;;;;;;1814113;77;26774;-45
2022/06/04 13:29:00;;;;;;;2.60;1.00;;;;;;;;;;1811423;78;26756;-45
2022/06/04 13:31:29;;;;;;;1.00;1.00;;;;;;;;;;1808615;78;26306;-44
2022/06/04 13:33:58;;;;;;;2.45;1.00;;;;;;;;;;1811105;78;26771;-45
2022/06/04 13:36:29;;;;;;;1.50;0.98;;;;;;;;;;1799854;78;26349;-44
2022/06/04 13:38:58;;;;;;;0.80;0.80;;;;;;;;;;1815398;78;26303;-43
2022/06/04 13:44:17;;;;;;;1.52;1.05;;;;;;;;;;1799395;78;26880;-47
2022/06/04 13:46:44;;;;;;;1.00;1.00;;;;;;;;;;1804766;78;26294;-45
2022/06/04 13:49:13;;;;;;;0.90;0.90;;;;;;;;;;1809904;78;26278;-44
2022/06/04 13:51:42;;;;;;;1.55;1.00;;;;;;;;;;1801825;78;26620;-44
2022/06/04 13:54:28;;;;;;;1.02;1.02;;;;;;;;;;1811077;78;26812;-45
2022/06/04 13:56:57;;;;;;;0.85;0.85;;;;;;;;;;1806869;78;26876;-43
2022/06/04 13:59:26;;;;;;;0.82;0.82;;;;;;;;;;1816725;78;26926;-43
2022/06/04 14:01:58;;;;;;;0.80;0.80;;;;;;;;;;1811339;78;26311;-43
2022/06/04 14:07:12;;;;;;;1.00;1.00;;;;;;;;;;1821516;78;26325;-43
2022/06/04 14:09:41;;;;;;;0.70;0.70;;;;;;;;;;1807632;78;26842;-43
2022/06/04 14:12:16;;;;;;;1.00;1.00;;;;;;;;;;1812073;78;26736;-46
2022/06/04 14:14:45;;;;;;;0.90;0.90;;;;;;;;;;1808692;78;26296;-43
2022/06/04 14:17:17;;;;;;;0.90;0.90;;;;;;;;;;1801638;78;26620;-42
2022/06/04 14:20:01;;;;;;;0.90;0.90;;;;;;;;;;1803303;78;26321;-46
2022/06/04 14:22:30;;;;;;;1.47;0.90;;;;;;;;;;1819763;78;27178;-45
2022/06/04 14:25:02;;;;;;;0.90;0.90;;;;;;;;;;1796436;78;26253;-43
2022/06/04 14:27:40;;;;;;;1.00;1.00;;;;;;;;;;1802865;78;26373;-43
2022/06/04 14:30:09;;;;;;;0.80;0.80;;;;;;;;;;1794040;78;26814;-43
2022/06/04 14:32:46;;;;;;;0.93;0.93;;;;;;;;;;1808163;78;26360;-44
2022/06/04 14:35:21;;;;;;;0.80;0.80;;;;;;;;;;1811265;78;26325;-44
2022/06/04 14:37:50;;;;;;;1.37;0.85;;;;;;;;;;1820519;78;26295;-43
2022/06/04 14:40:19;;;;;;;0.90;0.90;;;;;;;;;;1807162;78;26228;-44
2022/06/04 14:42:47;;;;;;;0.90;0.90;;;;;;;;;;1806167;78;26333;-43
2022/06/04 14:45:19;;;;;;;0.70;0.70;;;;;;;;;;1805277;78;26347;-43
2022/06/04 14:47:56;;;;;;;0.90;0.90;;;;;;;;;;1811098;78;26347;-45
2022/06/04 14:50:41;;;;;;;1.00;1.00;;;;;;;;;;1752431;80;26309;-47
2022/06/04 14:53:10;;;;;;;1.05;0.82;;;;;;;;;;1798802;78;26276;-43
2022/06/04 14:55:42;;;;;;;1.25;0.90;;;;;;;;;;1797906;78;26388;-43
2022/06/04 14:58:23;;;;;;;0.90;0.90;;;;;;;;;;1800758;78;26339;-44
2022/06/04 15:01:09;;;;;;;0.93;0.93;;;;;;;;;;1754766;79;26774;-43
2022/06/04 15:03:47;;;;;;;1.05;0.80;;;;;;;;;;1772015;80;26323;-43
2022/06/04 15:06:26;;;;;;;0.90;0.90;;;;;;;;;;1768576;80;26332;-44
2022/06/04 15:08:55;;;;;;;0.90;0.90;;;;;;;;;;1766199;79;26318;-44
2022/06/04 15:11:27;;;;;;;0.90;0.90;;;;;;;;;;1775724;79;26470;-43
2022/06/04 15:14:02;;;;;;;1.10;1.10;;;;;;;;;;1789805;79;26352;-44
2022/06/04 15:16:30;;;;;;;0.80;0.80;;;;;;;;;;1780661;79;26982;-43
2022/06/04 15:18:59;;;;;;;0.98;0.98;;;;;;;;;;1784869;79;26312;-50
2022/06/04 15:21:45;;;;;;;1.20;0.90;;;;;;;;;;1770119;80;26297;-45
2022/06/04 15:24:20;;;;;;;0.90;0.90;;;;;;;;;;1773165;79;26802;-45